createdAt,value
2016-09-08T00:00:36.703Z,0
2016-09-08T00:01:46.989Z,0
2016-09-08T00:02:57.292Z,0
2016-09-08T00:04:07.579Z,0
2016-09-08T00:05:17.865Z,0
2016-09-08T00:06:28.157Z,0
2016-09-08T00:07:38.445Z,0
2016-09-08T00:08:48.451Z,0
2016-09-08T00:09:58.757Z,0
2016-09-08T00:11:09.065Z,0
2016-09-08T00:12:19.367Z,0
2016-09-08T00:13:29.358Z,0
2016-09-08T00:14:39.340Z,0
2016-09-08T00:15:49.329Z,0
2016-09-08T00:16:59.635Z,0
2016-09-08T00:18:09.913Z,0
2016-09-08T00:19:20.213Z,0
2016-09-08T00:20:30.503Z,0
2016-09-08T00:21:40.796Z,0
2016-09-08T00:22:51.130Z,0
2016-09-08T00:24:01.434Z,0
2016-09-08T00:25:11.732Z,0
2016-09-08T00:26:21.717Z,0
2016-09-08T00:27:32.005Z,0
2016-09-08T00:28:41.677Z,0
2016-09-08T00:29:51.662Z,0
2016-09-08T00:31:01.014Z,0
2016-09-08T00:32:11.301Z,0
2016-09-08T00:33:21.589Z,0
2016-09-08T00:34:31.885Z,0
2016-09-08T00:35:41.552Z,0
2016-09-08T00:36:51.858Z,0
2016-09-08T00:38:01.849Z,0
2016-09-08T00:39:12.132Z,0
2016-09-08T00:40:22.418Z,0
2016-09-08T00:41:32.695Z,0
2016-09-08T00:42:42.993Z,0
2016-09-08T00:43:53.287Z,0
2016-09-08T00:45:03.270Z,0
2016-09-08T00:46:12.947Z,0
2016-09-08T00:47:22.623Z,0
2016-09-08T00:48:32.596Z,0
2016-09-08T00:49:42.876Z,0
2016-09-08T00:50:53.173Z,0
2016-09-08T00:52:03.160Z,0
2016-09-08T00:53:12.840Z,0
2016-09-08T00:54:22.213Z,0
2016-09-08T00:55:32.498Z,0
2016-09-08T00:56:42.487Z,0
2016-09-08T00:57:52.770Z,0
2016-09-08T00:59:03.072Z,0
2016-09-08T01:00:13.070Z,0
2016-09-08T01:01:23.354Z,0
2016-09-08T01:02:33.394Z,0
2016-09-08T01:03:43.383Z,0
2016-09-08T01:04:53.669Z,0
2016-09-08T01:06:03.636Z,0
2016-09-08T01:07:13.858Z,0
2016-09-08T01:08:23.843Z,0
2016-09-08T01:09:34.132Z,0
2016-09-08T01:10:44.433Z,0
2016-09-08T01:11:54.724Z,0
2016-09-08T01:13:04.726Z,0
2016-09-08T01:14:15.014Z,0
2016-09-08T01:15:25.299Z,0
2016-09-08T01:16:34.673Z,0
2016-09-08T01:17:44.968Z,0
2016-09-08T01:18:54.941Z,0
2016-09-08T01:20:04.607Z,0
2016-09-08T01:21:14.901Z,0
2016-09-08T01:22:24.920Z,0
2016-09-08T01:23:34.905Z,0
2016-09-08T01:24:44.574Z,0
2016-09-08T01:25:54.565Z,0
2016-09-08T01:27:04.857Z,0
2016-09-08T01:28:15.159Z,0
2016-09-08T01:29:24.516Z,0
2016-09-08T01:30:34.511Z,0
2016-09-08T01:31:44.484Z,0
2016-09-08T01:32:54.775Z,0
2016-09-08T01:34:04.774Z,0
2016-09-08T01:35:15.070Z,0
2016-09-08T01:36:25.045Z,0
2016-09-08T01:37:35.359Z,0
2016-09-08T01:38:45.354Z,0
2016-09-08T01:39:55.041Z,0
2016-09-08T01:41:05.331Z,0
2016-09-08T01:42:15.000Z,0
2016-09-08T01:43:25.321Z,0
2016-09-08T01:44:35.294Z,0
2016-09-08T01:45:45.606Z,0
2016-09-08T01:46:55.888Z,0
2016-09-08T01:48:06.183Z,0
2016-09-08T01:49:16.461Z,0
2016-09-08T01:50:26.743Z,0
2016-09-08T01:51:36.734Z,0
2016-09-08T01:52:46.730Z,0
2016-09-08T01:53:56.710Z,0
2016-09-08T01:55:06.993Z,0
2016-09-08T01:56:16.687Z,0
2016-09-08T01:57:26.658Z,0
2016-09-08T01:58:36.638Z,0
2016-09-08T01:59:46.611Z,0
2016-09-08T02:00:56.882Z,0
2016-09-08T02:02:05.938Z,0
2016-09-08T02:03:15.911Z,0
2016-09-08T02:04:25.892Z,0
2016-09-08T02:05:35.866Z,0
2016-09-08T02:06:46.161Z,0
2016-09-08T02:07:56.437Z,0
2016-09-08T02:09:06.425Z,0
2016-09-08T02:10:16.712Z,0
2016-09-08T02:11:26.695Z,0
2016-09-08T02:12:36.684Z,0
2016-09-08T02:13:46.659Z,0
2016-09-08T02:14:56.945Z,0
2016-09-08T02:16:07.235Z,0
2016-09-08T02:17:16.909Z,0
2016-09-08T02:18:26.895Z,0
2016-09-08T02:19:36.865Z,0
2016-09-08T02:20:47.152Z,0
2016-09-08T02:21:56.819Z,0
2016-09-08T02:23:07.115Z,0
2016-09-08T02:24:17.104Z,0
2016-09-08T02:25:27.088Z,0
2016-09-08T02:26:37.384Z,0
2016-09-08T02:27:47.676Z,0
2016-09-08T02:28:57.655Z,0
2016-09-08T02:30:07.017Z,0
2016-09-08T02:31:17.309Z,0
2016-09-08T02:32:27.590Z,0
2016-09-08T02:33:37.577Z,0
2016-09-08T02:34:47.852Z,0
2016-09-08T02:35:57.516Z,0
2016-09-08T02:37:07.184Z,0
2016-09-08T02:38:16.558Z,0
2016-09-08T02:39:26.850Z,0
2016-09-08T02:40:36.824Z,0
2016-09-08T02:41:46.814Z,0
2016-09-08T02:42:56.493Z,0
2016-09-08T02:44:06.785Z,0
2016-09-08T02:45:17.082Z,0
2016-09-08T02:46:26.770Z,0
2016-09-08T02:47:37.057Z,0
2016-09-08T02:48:47.038Z,0
2016-09-08T02:49:56.709Z,0
2016-09-08T02:51:06.065Z,0
2016-09-08T02:52:16.045Z,0
2016-09-08T02:53:26.336Z,0
2016-09-08T02:54:36.619Z,0
2016-09-08T02:55:46.927Z,0
2016-09-08T02:56:57.210Z,0
2016-09-08T02:58:07.491Z,0
2016-09-08T02:59:17.798Z,0
2016-09-08T03:00:28.090Z,0
2016-09-08T03:32:33.153Z,0
2016-09-08T03:33:43.429Z,0
2016-09-08T03:34:53.705Z,0
2016-09-08T03:36:03.354Z,0
2016-09-08T03:37:12.732Z,0
2016-09-08T03:38:22.700Z,0
2016-09-08T03:39:32.683Z,0
2016-09-08T03:40:42.973Z,0
2016-09-08T03:41:52.955Z,0
2016-09-08T03:43:02.921Z,0
2016-09-08T03:44:12.900Z,0
2016-09-08T03:45:22.895Z,0
2016-09-08T03:46:32.882Z,0
2016-09-08T03:47:42.869Z,0
2016-09-08T03:48:52.843Z,0
2016-09-08T03:50:02.822Z,4
2016-09-08T03:51:13.121Z,4
2016-09-08T03:52:23.422Z,4
2016-09-08T03:53:33.090Z,0
2016-09-08T03:54:43.077Z,4
2016-09-08T03:55:52.747Z,4
2016-09-08T03:57:03.061Z,4
2016-09-08T03:58:13.049Z,4
2016-09-08T03:59:23.019Z,8
2016-09-08T04:00:32.680Z,8
2016-09-08T04:01:42.371Z,8
2016-09-08T04:02:52.657Z,8
2016-09-08T04:04:02.943Z,12
2016-09-08T04:05:12.936Z,12
2016-09-08T04:06:23.236Z,16
2016-09-08T04:07:33.540Z,24
2016-09-08T04:08:43.515Z,24
2016-09-08T04:09:53.807Z,28
2016-09-08T04:11:03.779Z,36
2016-09-08T04:12:13.759Z,40
2016-09-08T04:13:24.048Z,44
2016-09-08T04:14:34.365Z,56
2016-09-08T04:15:44.366Z,64
2016-09-08T04:16:54.346Z,68
2016-09-08T04:18:04.566Z,80
2016-09-08T04:19:14.857Z,88
2016-09-08T04:20:24.838Z,108
2016-09-08T04:21:34.510Z,120
2016-09-08T04:22:44.477Z,132
2016-09-08T04:23:54.768Z,148
2016-09-08T04:25:05.056Z,168
2016-09-08T04:26:15.037Z,184
2016-09-08T04:27:25.327Z,200
2016-09-08T04:28:35.615Z,220
2016-09-08T04:29:45.322Z,240
2016-09-08T04:30:55.325Z,256
2016-09-08T04:32:05.305Z,280
2016-09-08T04:33:15.323Z,304
2016-09-08T04:34:25.016Z,328
2016-09-08T04:35:35.296Z,352
2016-09-08T04:36:45.272Z,384
2016-09-08T04:37:55.263Z,416
2016-09-08T04:39:05.250Z,448
2016-09-08T04:40:15.232Z,484
2016-09-08T04:41:25.509Z,524
2016-09-08T04:42:35.484Z,556
2016-09-08T04:43:45.474Z,596
2016-09-08T04:44:55.454Z,644
2016-09-08T04:46:05.125Z,680
2016-09-08T04:47:15.406Z,716
2016-09-08T04:48:25.393Z,768
2016-09-08T04:49:35.671Z,812
2016-09-08T04:50:45.962Z,860
2016-09-08T04:51:55.948Z,916
2016-09-08T04:53:06.240Z,972
2016-09-08T04:54:16.206Z,1036
2016-09-08T04:55:25.879Z,1108
2016-09-08T04:56:35.861Z,1184
2016-09-08T04:57:45.847Z,1280
2016-09-08T04:58:56.147Z,1344
2016-09-08T05:00:06.117Z,1400
2016-09-08T05:01:16.091Z,1444
2016-09-08T05:02:26.394Z,1492
2016-09-08T05:03:36.062Z,1680
2016-09-08T05:04:46.045Z,1736
2016-09-08T05:05:55.726Z,1972
2016-09-08T05:07:05.701Z,2108
2016-09-08T05:08:15.679Z,2272
2016-09-08T05:09:25.344Z,2272
2016-09-08T05:10:35.020Z,2572
2016-09-08T05:11:45.005Z,2668
2016-09-08T05:12:54.981Z,2324
2016-09-08T05:14:04.947Z,2160
2016-09-08T05:15:14.933Z,2204
2016-09-08T05:16:24.901Z,2256
2016-09-08T05:17:35.184Z,2304
2016-09-08T05:18:44.554Z,2340
2016-09-08T05:19:54.839Z,2396
2016-09-08T05:21:05.127Z,2440
2016-09-08T05:22:15.419Z,2496
2016-09-08T05:23:25.707Z,2544
2016-09-08T05:24:35.683Z,2612
2016-09-08T05:25:45.998Z,2752
2016-09-08T05:26:56.294Z,3104
2016-09-08T05:28:06.282Z,3296
2016-09-08T05:29:16.587Z,3372
2016-09-08T05:30:26.571Z,3420
2016-09-08T05:31:36.851Z,3144
2016-09-08T05:32:47.132Z,2920
2016-09-08T05:33:57.475Z,2952
2016-09-08T05:35:07.764Z,2996
2016-09-08T05:36:18.064Z,3048
2016-09-08T05:37:28.360Z,3260
2016-09-08T05:38:38.333Z,3232
2016-09-08T05:39:47.704Z,3192
2016-09-08T05:40:57.980Z,3500
2016-09-08T05:42:08.278Z,4152
2016-09-08T05:43:18.571Z,4176
2016-09-08T05:44:28.546Z,3596
2016-09-08T05:45:38.527Z,3372
2016-09-08T05:46:48.518Z,3392
2016-09-08T05:47:58.801Z,3556
2016-09-08T05:49:09.114Z,4224
2016-09-08T05:50:19.399Z,4800
2016-09-08T05:51:29.380Z,4752
2016-09-08T05:52:39.683Z,4220
2016-09-08T05:53:49.956Z,3720
2016-09-08T05:55:00.266Z,3608
2016-09-08T05:56:09.941Z,3792
2016-09-08T05:57:19.924Z,4212
2016-09-08T05:58:29.931Z,4480
2016-09-08T05:59:40.225Z,4392
2016-09-08T06:00:49.896Z,4072
2016-09-08T06:02:00.181Z,3788
2016-09-08T06:03:10.494Z,3744
2016-09-08T06:04:20.796Z,3804
2016-09-08T06:05:31.081Z,3788
2016-09-08T06:06:41.385Z,3804
2016-09-08T06:07:51.670Z,3836
2016-09-08T06:09:01.657Z,3844
2016-09-08T06:10:11.944Z,3860
2016-09-08T06:11:21.616Z,3884
2016-09-08T06:12:31.600Z,3912
2016-09-08T06:13:41.605Z,3940
2016-09-08T06:14:51.900Z,3960
2016-09-08T06:16:01.872Z,3992
2016-09-08T06:17:11.848Z,4032
2016-09-08T06:18:22.156Z,4052
2016-09-08T06:19:32.137Z,4072
2016-09-08T06:20:42.115Z,4136
2016-09-08T06:21:51.797Z,4160
2016-09-08T06:23:01.802Z,4164
2016-09-08T06:24:12.105Z,4184
2016-09-08T06:25:22.400Z,4200
2016-09-08T06:26:32.683Z,4220
2016-09-08T06:27:42.984Z,4248
2016-09-08T06:28:53.262Z,4264
2016-09-08T06:30:03.580Z,4272
2016-09-08T06:31:13.570Z,4312
2016-09-08T06:32:23.857Z,4348
2016-09-08T06:33:34.154Z,4364
2016-09-08T06:34:44.176Z,4396
2016-09-08T06:35:54.152Z,4432
2016-09-08T06:37:04.444Z,4448
2016-09-08T06:38:14.732Z,4464
2016-09-08T06:39:25.012Z,4476
2016-09-08T06:40:35.015Z,4496
2016-09-08T06:41:45.315Z,4516
2016-09-08T06:42:55.609Z,4528
2016-09-08T06:44:05.600Z,4540
2016-09-08T06:45:15.886Z,4548
2016-09-08T06:46:26.172Z,4592
2016-09-08T06:47:36.173Z,4616
2016-09-08T06:48:46.479Z,4624
2016-09-08T06:49:56.483Z,4644
2016-09-08T06:51:06.775Z,4656
2016-09-08T06:52:17.082Z,4668
2016-09-08T06:53:27.053Z,4676
2016-09-08T06:54:37.335Z,4712
2016-09-08T06:55:47.652Z,4740
2016-09-08T06:56:57.938Z,4768
2016-09-08T06:58:07.935Z,4780
2016-09-08T06:59:17.945Z,4800
2016-09-08T07:00:28.235Z,4852
2016-09-08T07:01:38.560Z,4904
2016-09-08T07:02:48.553Z,4940
2016-09-08T07:03:58.845Z,4948
2016-09-08T07:05:09.132Z,4972
2016-09-08T07:06:19.453Z,4980
2016-09-08T07:07:29.739Z,5008
2016-09-08T07:08:40.027Z,5032
2016-09-08T07:09:49.687Z,5048
2016-09-08T07:10:59.975Z,5068
2016-09-08T07:12:10.256Z,5088
2016-09-08T07:13:20.554Z,5104
2016-09-08T07:14:30.523Z,5132
2016-09-08T07:15:40.811Z,5152
2016-09-08T07:16:51.113Z,5164
2016-09-08T07:18:01.090Z,5200
2016-09-08T07:19:11.401Z,5224
2016-09-08T07:20:21.714Z,5224
2016-09-08T07:21:32.000Z,5228
2016-09-08T07:22:41.997Z,5252
2016-09-08T07:23:52.283Z,5292
2016-09-08T07:25:02.571Z,5328
2016-09-08T07:26:12.871Z,5336
2016-09-08T07:27:23.168Z,5368
2016-09-08T07:28:32.846Z,5396
2016-09-08T07:29:43.142Z,5424
2016-09-08T07:30:53.119Z,5452
2016-09-08T07:32:03.105Z,5480
2016-09-08T07:33:13.078Z,5496
2016-09-08T07:34:23.368Z,5544
2016-09-08T07:35:33.355Z,5552
2016-09-08T07:36:43.638Z,5568
2016-09-08T07:37:53.915Z,5600
2016-09-08T07:39:04.223Z,5624
2016-09-08T07:40:14.526Z,5636
2016-09-08T07:41:24.829Z,5644
2016-09-08T07:42:35.124Z,5680
2016-09-08T07:43:45.401Z,5708
2016-09-08T07:44:55.701Z,5736
2016-09-08T07:46:05.686Z,5756
2016-09-08T07:47:15.982Z,5796
2016-09-08T07:48:25.959Z,5812
2016-09-08T07:49:36.247Z,5840
2016-09-08T07:50:46.533Z,5868
2016-09-08T07:51:56.840Z,5908
2016-09-08T07:53:07.132Z,5948
2016-09-08T07:54:17.429Z,5976
2016-09-08T07:55:27.713Z,6008
2016-09-08T07:56:37.709Z,6012
2016-09-08T07:57:48.009Z,6032
2016-09-08T07:58:57.994Z,6072
2016-09-08T08:00:08.283Z,6120
2016-09-08T08:01:17.955Z,6156
2016-09-08T08:02:28.260Z,6172
2016-09-08T08:03:38.573Z,6192
2016-09-08T08:04:48.565Z,6192
2016-09-08T08:05:58.554Z,6232
2016-09-08T08:07:08.848Z,6264
2016-09-08T08:08:18.844Z,6256
2016-09-08T08:09:29.142Z,6292
2016-09-08T08:10:39.463Z,6324
2016-09-08T08:11:49.760Z,6364
2016-09-08T08:12:59.733Z,6392
2016-09-08T08:14:09.708Z,6420
2016-09-08T08:15:20.012Z,6428
2016-09-08T08:16:30.019Z,6444
2016-09-08T08:17:40.351Z,6460
2016-09-08T08:18:50.330Z,6496
2016-09-08T08:20:00.622Z,6544
2016-09-08T08:21:10.950Z,6528
2016-09-08T08:22:20.970Z,6528
2016-09-08T08:23:30.960Z,6556
2016-09-08T08:24:41.275Z,6608
2016-09-08T08:25:51.568Z,6628
2016-09-08T08:27:01.863Z,6644
2016-09-08T08:28:12.153Z,6680
2016-09-08T08:29:22.460Z,6688
2016-09-08T08:30:32.453Z,6672
2016-09-08T08:31:42.725Z,6728
2016-09-08T08:32:53.017Z,6736
2016-09-08T08:34:03.318Z,6720
2016-09-08T08:35:12.990Z,6780
2016-09-08T08:36:23.321Z,6824
2016-09-08T08:37:33.630Z,6840
2016-09-08T08:38:43.924Z,6860
2016-09-08T08:39:54.221Z,6884
2016-09-08T08:41:04.503Z,6936
2016-09-08T08:42:14.820Z,6976
2016-09-08T08:43:25.126Z,6920
2016-09-08T08:44:35.443Z,6948
2016-09-08T08:45:45.125Z,7008
2016-09-08T08:46:55.427Z,6988
2016-09-08T08:48:05.722Z,7020
2016-09-08T08:49:16.035Z,6996
2016-09-08T08:50:26.027Z,7084
2016-09-08T08:51:36.028Z,7104
2016-09-08T08:52:46.012Z,7140
2016-09-08T08:53:56.308Z,7124
2016-09-08T08:55:06.303Z,7096
2016-09-08T08:56:16.601Z,7120
2016-09-08T08:57:26.905Z,7184
2016-09-08T08:58:37.180Z,7172
2016-09-08T08:59:47.476Z,7172
2016-09-08T09:00:57.764Z,7224
2016-09-08T09:02:07.423Z,7204
2016-09-08T09:03:17.109Z,7244
2016-09-08T09:04:27.420Z,7268
2016-09-08T09:05:37.699Z,7328
2016-09-08T09:06:47.993Z,7328
2016-09-08T09:07:57.985Z,7392
2016-09-08T09:09:08.285Z,7408
2016-09-08T09:10:18.562Z,7352
2016-09-08T09:11:28.550Z,7380
2016-09-08T09:12:38.532Z,7424
2016-09-08T09:13:48.822Z,7372
2016-09-08T09:14:59.149Z,7408
2016-09-08T09:16:09.174Z,7432
2016-09-08T09:17:19.159Z,7472
2016-09-08T09:18:29.450Z,7540
2016-09-08T09:19:39.733Z,7544
2016-09-08T09:20:49.712Z,7560
2016-09-08T09:21:59.694Z,7556
2016-09-08T09:23:09.977Z,7608
2016-09-08T09:24:20.284Z,7628
2016-09-08T09:25:30.589Z,7660
2016-09-08T09:26:40.864Z,7716
2016-09-08T09:27:50.537Z,7740
2016-09-08T09:29:00.220Z,7876
2016-09-08T09:30:10.501Z,7756
2016-09-08T09:31:20.504Z,7744
2016-09-08T09:32:30.490Z,7720
2016-09-08T09:33:40.467Z,7712
2016-09-08T09:34:50.768Z,7716
2016-09-08T09:36:00.770Z,7768
2016-09-08T09:37:11.124Z,7804
2016-09-08T09:38:21.417Z,7836
2016-09-08T09:39:31.722Z,7840
2016-09-08T09:40:42.021Z,7916
2016-09-08T09:41:52.330Z,7940
2016-09-08T09:43:02.645Z,7936
2016-09-08T09:44:12.956Z,7888
2016-09-08T09:45:23.244Z,7916
2016-09-08T09:46:33.251Z,7980
2016-09-08T09:47:43.241Z,8012
2016-09-08T09:48:53.549Z,7992
2016-09-08T09:50:03.850Z,7984
2016-09-08T09:51:14.158Z,8040
2016-09-08T09:52:24.459Z,8020
2016-09-08T09:53:34.762Z,8036
2016-09-08T09:54:45.062Z,8040
2016-09-08T09:55:55.379Z,8104
2016-09-08T09:57:05.374Z,8132
2016-09-08T09:58:15.680Z,8188
2016-09-08T09:59:25.674Z,8192
2016-09-08T10:00:35.655Z,8228
2016-09-08T10:01:45.954Z,8252
2016-09-08T10:02:55.929Z,8272
2016-09-08T10:04:05.921Z,8284
2016-09-08T10:05:15.592Z,8292
2016-09-08T10:06:25.894Z,8300
2016-09-08T10:07:35.886Z,8300
2016-09-08T10:08:46.198Z,8324
2016-09-08T10:09:56.194Z,8304
2016-09-08T10:11:06.498Z,8296
2016-09-08T10:12:16.813Z,8308
2016-09-08T10:13:26.794Z,8356
2016-09-08T10:14:36.483Z,8364
2016-09-08T10:15:46.794Z,8356
2016-09-08T10:16:57.089Z,8308
2016-09-08T10:18:07.110Z,8296
2016-09-08T10:19:17.440Z,8296
2016-09-08T10:20:27.459Z,8264
2016-09-08T10:21:37.746Z,8340
2016-09-08T10:22:48.055Z,8356
2016-09-08T10:23:58.350Z,8364
2016-09-08T10:25:08.042Z,8404
2016-09-08T10:26:18.025Z,8376
2016-09-08T10:27:28.354Z,8356
2016-09-08T10:28:38.653Z,8424
2016-09-08T10:29:48.652Z,8472
2016-09-08T10:30:58.977Z,8508
2016-09-08T10:32:09.286Z,8480
2016-09-08T10:33:19.569Z,8456
2016-09-08T10:34:29.586Z,8500
2016-09-08T10:35:39.577Z,8524
2016-09-08T10:36:49.890Z,8528
2016-09-08T10:37:59.878Z,8488
2016-09-08T10:39:10.193Z,8540
2016-09-08T10:40:20.496Z,8392
2016-09-08T10:41:30.206Z,8468
2016-09-08T10:42:40.514Z,8524
2016-09-08T10:43:50.825Z,8560
2016-09-08T10:45:01.155Z,8528
2016-09-08T10:46:11.465Z,8572
2016-09-08T10:47:21.455Z,8592
2016-09-08T10:48:31.756Z,8568
2016-09-08T10:49:42.044Z,8604
2016-09-08T10:50:52.346Z,8596
2016-09-08T10:52:02.641Z,8612
2016-09-08T10:53:12.940Z,8676
2016-09-08T10:54:23.245Z,8640
2016-09-08T10:55:33.544Z,8672
2016-09-08T10:56:43.831Z,8652
2016-09-08T10:57:54.135Z,8700
2016-09-08T10:59:04.455Z,8676
2016-09-08T11:00:14.134Z,8596
2016-09-08T11:01:24.425Z,8612
2016-09-08T11:02:34.117Z,8588
2016-09-08T11:03:44.104Z,8636
2016-09-08T11:04:54.413Z,8680
2016-09-08T11:06:04.745Z,8812
2016-09-08T11:07:15.055Z,8824
2016-09-08T11:08:25.046Z,8848
2016-09-08T11:09:34.109Z,8836
2016-09-08T11:10:44.410Z,8812
2016-09-08T11:11:54.705Z,8808
2016-09-08T11:13:04.710Z,8820
2016-09-08T11:14:14.704Z,8772
2016-09-08T11:15:24.996Z,8784
2016-09-08T11:16:34.979Z,8768
2016-09-08T11:17:44.975Z,8776
2016-09-08T11:18:54.960Z,8696
2016-09-08T11:20:05.018Z,8760
2016-09-08T11:21:15.312Z,8932
2016-09-08T11:22:24.991Z,8888
2016-09-08T11:23:35.294Z,8832
2016-09-08T11:24:45.595Z,8856
2016-09-08T11:25:55.889Z,8832
2016-09-08T11:27:06.175Z,8848
2016-09-08T11:28:16.487Z,8816
2016-09-08T11:29:26.479Z,8824
2016-09-08T11:30:36.771Z,8780
2016-09-08T11:31:47.076Z,8744
2016-09-08T11:32:57.396Z,8848
2016-09-08T11:34:07.390Z,8852
2016-09-08T11:35:17.397Z,8884
2016-09-08T11:36:27.689Z,8860
2016-09-08T11:37:37.680Z,8900
2016-09-08T11:38:47.712Z,8488
2016-09-08T11:39:57.693Z,8748
2016-09-08T11:41:07.685Z,8748
2016-09-08T11:42:17.687Z,8864
2016-09-08T11:43:27.988Z,8700
2016-09-08T11:44:38.282Z,8612
2016-09-08T11:45:48.284Z,8620
2016-09-08T11:46:58.574Z,8504
2016-09-08T11:48:08.906Z,8588
2016-09-08T11:49:19.244Z,8592
2016-09-08T11:50:29.254Z,8668
2016-09-08T11:51:39.558Z,8636
2016-09-08T11:52:49.563Z,8600
2016-09-08T11:53:59.885Z,8824
2016-09-08T11:55:10.206Z,8832
2016-09-08T11:56:20.513Z,8828
2016-09-08T11:57:30.500Z,8880
2016-09-08T11:58:40.818Z,8868
2016-09-08T11:59:51.114Z,9016
2016-09-08T12:01:01.396Z,8984
2016-09-08T12:02:11.386Z,8940
2016-09-08T12:03:21.701Z,8940
2016-09-08T12:04:31.994Z,9008
2016-09-08T12:05:42.282Z,9116
2016-09-08T12:06:52.288Z,8992
2016-09-08T12:08:02.587Z,9000
2016-09-08T12:09:12.873Z,9072
2016-09-08T12:10:22.864Z,9056
2016-09-08T12:11:32.892Z,9320
2016-09-08T12:12:42.902Z,9320
2016-09-08T12:13:53.203Z,9420
2016-09-08T12:15:03.505Z,9308
2016-09-08T12:16:13.806Z,9184
2016-09-08T12:17:24.119Z,9204
2016-09-08T12:18:34.436Z,9192
2016-09-08T12:19:44.444Z,9208
2016-09-08T12:20:54.734Z,8988
2016-09-08T12:22:05.056Z,9084
2016-09-08T12:23:15.349Z,9172
2016-09-08T12:24:25.666Z,8776
2016-09-08T12:25:35.352Z,8884
2016-09-08T12:26:45.648Z,8852
2016-09-08T12:27:55.954Z,9084
2016-09-08T12:29:06.261Z,9044
2016-09-08T12:30:16.566Z,8992
2016-09-08T12:31:26.574Z,8932
2016-09-08T12:32:36.880Z,8928
2016-09-08T12:33:46.886Z,8836
2016-09-08T12:34:56.891Z,8756
2016-09-08T12:36:06.577Z,8728
2016-09-08T12:37:16.891Z,8588
2016-09-08T12:38:26.882Z,8552
2016-09-08T12:39:36.897Z,8552
2016-09-08T12:40:46.594Z,8556
2016-09-08T12:41:56.906Z,8556
2016-09-08T12:43:06.898Z,8556
2016-09-08T12:44:17.238Z,8516
2016-09-08T12:45:27.540Z,8504
2016-09-08T12:46:37.844Z,8436
2016-09-08T12:47:47.838Z,8412
2016-09-08T12:48:57.806Z,8380
2016-09-08T12:50:08.116Z,8296
2016-09-08T12:51:18.418Z,8276
2016-09-08T12:52:28.422Z,8356
2016-09-08T12:53:38.968Z,8360
2016-09-08T12:54:49.271Z,8348
2016-09-08T12:55:59.586Z,8316
2016-09-08T12:57:09.930Z,8316
2016-09-08T12:58:20.230Z,8208
2016-09-08T12:59:30.243Z,8208
2016-09-08T13:00:40.534Z,8212
2016-09-08T13:01:50.825Z,8300
2016-09-08T13:03:01.122Z,8324
2016-09-08T13:04:11.138Z,8308
2016-09-08T13:05:20.821Z,8260
2016-09-08T13:06:31.126Z,8172
2016-09-08T13:07:41.425Z,8096
2016-09-08T13:08:51.463Z,8060
2016-09-08T13:10:03.720Z,8040
2016-09-08T13:11:14.057Z,7984
2016-09-08T13:12:23.458Z,8040
2016-09-08T13:13:33.801Z,7916
2016-09-08T13:14:44.164Z,7860
2016-09-08T13:15:53.891Z,7820
2016-09-08T13:17:04.224Z,7820
2016-09-08T13:18:14.538Z,7776
2016-09-08T13:19:24.868Z,7800
2016-09-08T13:20:35.178Z,7824
2016-09-08T13:21:45.486Z,7780
2016-09-08T13:22:55.815Z,7720
2016-09-08T13:24:06.140Z,7652
2016-09-08T13:25:16.459Z,7600
2016-09-08T13:26:26.763Z,7572
2016-09-08T13:27:37.078Z,7504
2016-09-08T13:28:47.059Z,7392
2016-09-08T13:29:57.346Z,7440
2016-09-08T13:31:07.694Z,7516
2016-09-08T13:32:18.006Z,7504
2016-09-08T13:33:28.334Z,7496
2016-09-08T13:34:38.636Z,7432
2016-09-08T13:35:48.973Z,7364
2016-09-08T13:36:59.287Z,7216
2016-09-08T13:38:09.607Z,7296
2016-09-08T13:39:19.615Z,7320
2016-09-08T13:40:29.708Z,7232
2016-09-08T13:41:39.390Z,7164
2016-09-08T13:42:49.704Z,7108
2016-09-08T13:43:59.698Z,7076
2016-09-08T13:45:10.013Z,7092
2016-09-08T13:46:19.996Z,7092
2016-09-08T13:47:30.311Z,7044
2016-09-08T13:48:40.304Z,7108
2016-09-08T13:49:50.305Z,7124
2016-09-08T13:51:00.635Z,7068
2016-09-08T13:52:10.967Z,7036
2016-09-08T13:53:21.263Z,7116
2016-09-08T13:54:31.263Z,7052
2016-09-08T13:55:41.278Z,7084
2016-09-08T13:56:51.669Z,7036
2016-09-08T13:58:01.999Z,7004
2016-09-08T13:59:12.327Z,6952
2016-09-08T14:00:22.640Z,6940
2016-09-08T14:01:32.964Z,6896
2016-09-08T14:02:43.269Z,6864
2016-09-08T14:03:53.594Z,6800
2016-09-08T14:05:03.908Z,6752
2016-09-08T14:06:13.592Z,6868
2016-09-08T14:07:23.907Z,6748
2016-09-08T14:08:34.222Z,6672
2016-09-08T14:09:44.255Z,6588
2016-09-08T14:10:54.591Z,6476
2016-09-08T14:12:04.893Z,6540
2016-09-08T14:13:15.217Z,6504
2016-09-08T14:14:25.518Z,6396
2016-09-08T14:15:35.530Z,6312
2016-09-08T14:16:45.542Z,6252
2016-09-08T14:17:55.853Z,6244
2016-09-08T14:19:06.172Z,6324
2016-09-08T14:20:16.500Z,6336
2016-09-08T14:21:26.825Z,6364
2016-09-08T14:22:37.123Z,6280
2016-09-08T14:23:47.446Z,6192
2016-09-08T14:24:57.755Z,6164
2016-09-08T14:26:08.094Z,6128
2016-09-08T14:27:18.411Z,6112
2016-09-08T14:28:28.755Z,6224
2016-09-08T14:29:39.066Z,6240
2016-09-08T14:30:49.371Z,6200
2016-09-08T14:31:59.674Z,6148
2016-09-08T14:33:09.993Z,6120
2016-09-08T14:34:19.998Z,6064
2016-09-08T14:35:30.332Z,6040
2016-09-08T14:36:40.634Z,5964
2016-09-08T14:37:50.946Z,5892
2016-09-08T14:39:00.949Z,5864
2016-09-08T14:40:10.631Z,5844
2016-09-08T14:41:21.005Z,5836
2016-09-08T14:42:30.687Z,5792
2016-09-08T14:43:41.021Z,5748
2016-09-08T14:44:51.023Z,5716
2016-09-08T14:46:01.040Z,5680
2016-09-08T14:47:11.052Z,5652
2016-09-08T14:48:21.350Z,5524
2016-09-08T14:49:31.050Z,5516
2016-09-08T14:50:41.361Z,5464
2016-09-08T14:51:51.645Z,5380
2016-09-08T14:53:01.976Z,5400
2016-09-08T14:54:12.293Z,5376
2016-09-08T14:55:21.984Z,5272
2016-09-08T14:56:32.040Z,5244
2016-09-08T14:57:42.359Z,5208
2016-09-08T14:58:52.679Z,5184
2016-09-08T15:00:02.992Z,5144
2016-09-08T15:01:12.993Z,5108
2016-09-08T15:02:23.303Z,5040
2016-09-08T15:03:33.301Z,5012
2016-09-08T15:04:43.312Z,5008
2016-09-08T15:05:53.646Z,4968
2016-09-08T15:07:03.969Z,4908
2016-09-08T15:08:14.289Z,4884
2016-09-08T15:09:24.614Z,4836
2016-09-08T15:10:34.923Z,4756
2016-09-08T15:11:45.227Z,4704
2016-09-08T15:12:55.245Z,4656
2016-09-08T15:14:05.586Z,4664
2016-09-08T15:15:15.915Z,4604
2016-09-08T15:16:26.235Z,4620
2016-09-08T15:17:36.558Z,4636
2016-09-08T15:18:46.875Z,4604
2016-09-08T15:19:57.189Z,4580
2016-09-08T15:21:07.509Z,4520
2016-09-08T15:22:17.528Z,4476
2016-09-08T15:23:27.851Z,4412
2016-09-08T15:24:38.160Z,4360
2016-09-08T15:25:48.465Z,4344
2016-09-08T15:26:58.764Z,4312
2016-09-08T15:28:09.106Z,4260
2016-09-08T15:29:19.448Z,4216
2016-09-08T15:30:29.773Z,4160
2016-09-08T15:31:40.082Z,4112
2016-09-08T15:32:50.388Z,4048
2016-09-08T15:34:00.703Z,4004
2016-09-08T15:35:11.001Z,3992
2016-09-08T15:36:21.316Z,3964
2016-09-08T15:37:31.627Z,3928
2016-09-08T15:38:41.944Z,3864
2016-09-08T15:39:52.246Z,3832
2016-09-08T15:41:02.233Z,3780
2016-09-08T15:42:12.559Z,3724
2016-09-08T15:43:22.874Z,3692
2016-09-08T15:44:32.879Z,3676
2016-09-08T15:45:42.558Z,3632
2016-09-08T15:46:52.864Z,3604
2016-09-08T15:48:03.170Z,3564
2016-09-08T15:49:13.475Z,3524
2016-09-08T15:50:23.801Z,3460
2016-09-08T15:51:34.105Z,3428
2016-09-08T15:52:43.781Z,3340
2016-09-08T15:53:54.087Z,3272
2016-09-08T15:55:04.403Z,3248
2016-09-08T15:56:14.401Z,3192
2016-09-08T15:57:24.099Z,3164
2016-09-08T15:58:34.411Z,3092
2016-09-08T15:59:44.724Z,3032
2016-09-08T16:00:55.266Z,2988
2016-09-08T16:02:05.265Z,2960
2016-09-08T16:03:15.880Z,2920
2016-09-08T16:04:26.199Z,2892
2016-09-08T16:05:36.197Z,2844
2016-09-08T16:06:46.211Z,2792
2016-09-08T16:07:56.563Z,2752
2016-09-08T16:09:06.887Z,2696
2016-09-08T16:10:16.882Z,2636
2016-09-08T16:11:26.885Z,2560
2016-09-08T16:12:37.186Z,2492
2016-09-08T16:13:47.509Z,2436
2016-09-08T16:14:57.835Z,2400
2016-09-08T16:16:07.846Z,2360
2016-09-08T16:17:18.177Z,2328
2016-09-08T16:18:28.521Z,2280
2016-09-08T16:19:38.517Z,2228
2016-09-08T16:20:48.860Z,2196
2016-09-08T16:21:59.169Z,2148
2016-09-08T16:23:08.879Z,2096
2016-09-08T16:24:19.185Z,2048
2016-09-08T16:25:29.509Z,1992
2016-09-08T16:26:39.492Z,1944
2016-09-08T16:27:49.503Z,1896